Time;durP1;ratioP1;P1;durP2;ratioP2;P2;SDS_P1;SDS_P2;PMS_P1;PMS_P2;Temp;Humidity;BMP_temperature;BMP_pressure;BME280_temperature;BME280_humidity;BME280_pressure;Samples;Min_cycle;Max_cycle;Signal;HPM_P1;HPM_P2
2022/08/04 00:00:17;;;;;;;23.30;17.33;;;18.70;90.80;;;;;;5106630;28;20028;-45
2022/08/04 00:02:45;;;;;;;34.40;17.88;;;18.70;90.80;;;;;;5107900;28;20023;-45
2022/08/04 00:05:38;;;;;;;31.50;17.27;;;18.60;90.80;;;;;;5106294;28;20058;-46
2022/08/04 00:08:34;;;;;;;22.30;15.85;;;18.60;90.70;;;;;;5068834;28;20096;-46
2022/08/04 00:11:03;;;;;;;26.23;17.75;;;18.60;90.80;;;;;;5088211;28;20035;-45
2022/08/04 00:13:36;;;;;;;25.35;17.48;;;18.60;90.80;;;;;;5090956;28;20036;-45
2022/08/04 00:16:08;;;;;;;26.48;20.35;;;18.60;91.10;;;;;;5108832;28;20055;-45
2022/08/04 00:18:40;;;;;;;29.65;19.45;;;18.60;91.20;;;;;;5107851;28;20084;-46
2022/08/04 00:21:14;;;;;;;29.75;22.02;;;18.60;91.20;;;;;;5112412;28;20492;-45
2022/08/04 00:23:43;;;;;;;25.90;20.27;;;18.60;91.20;;;;;;5113382;28;20030;-45
2022/08/04 00:26:09;;;;;;;33.45;21.40;;;18.70;91.40;;;;;;5091141;28;20394;-45
2022/08/04 00:28:37;;;;;;;32.97;22.30;;;18.70;91.50;;;;;;5111921;28;20024;-44
2022/08/04 00:31:04;;;;;;;34.78;22.52;;;18.70;91.50;;;;;;5109271;28;20084;-46
2022/08/04 00:33:32;;;;;;;39.22;25.60;;;18.80;91.60;;;;;;5113104;28;20088;-45
2022/08/04 00:35:59;;;;;;;39.15;24.85;;;18.80;91.70;;;;;;5112324;28;20074;-46
2022/08/04 00:38:26;;;;;;;35.40;23.00;;;18.80;91.60;;;;;;5113190;28;20409;-45
2022/08/04 00:41:12;;;;;;;32.83;21.67;;;18.80;91.70;;;;;;5107476;28;20020;-45
2022/08/04 00:43:46;;;;;;;34.72;23.13;;;18.80;91.60;;;;;;5071495;28;20350;-45
2022/08/04 00:46:34;;;;;;;34.00;23.92;;;18.70;91.60;;;;;;5080653;28;20066;-44
2022/08/04 00:49:20;;;;;;;36.03;23.85;;;18.80;91.60;;;;;;5092636;28;20038;-45
2022/08/04 00:51:52;;;;;;;37.85;22.92;;;18.80;91.60;;;;;;5079224;28;20480;-45
2022/08/04 00:55:06;;;;;;;39.38;24.58;;;18.70;91.50;;;;;;5074249;28;20078;-46
2022/08/04 00:57:41;;;;;;;32.47;22.67;;;18.70;91.50;;;;;;5073991;28;20071;-47
2022/08/04 01:00:10;;;;;;;34.00;24.35;;;18.70;91.50;;;;;;5090835;28;20350;-44
2022/08/04 01:02:55;;;;;;;29.83;23.83;;;18.70;91.50;;;;;;5091558;28;20059;-44
2022/08/04 01:05:28;;;;;;;33.30;23.48;;;18.70;91.60;;;;;;5089395;28;20052;-45
2022/08/04 01:08:25;;;;;;;45.40;26.73;;;18.60;91.50;;;;;;5088065;28;20062;-44
2022/08/04 01:11:15;;;;;;;31.17;22.95;;;18.60;91.70;;;;;;5090080;28;20043;-46
2022/08/04 01:14:04;;;;;;;42.90;26.80;;;18.60;91.50;;;;;;5090014;28;20500;-43
2022/08/04 01:16:33;;;;;;;42.22;26.85;;;18.60;91.60;;;;;;5090428;28;20707;-45
2022/08/04 01:19:04;;;;;;;41.83;27.17;;;18.60;91.60;;;;;;5091554;28;20032;-44
2022/08/04 01:21:54;;;;;;;38.38;24.67;;;18.60;91.70;;;;;;5091048;28;20043;-45
2022/08/04 01:24:41;;;;;;;41.90;27.83;;;18.60;91.80;;;;;;5082000;28;20028;-45
2022/08/04 01:27:48;;;;;;;44.35;28.88;;;18.70;91.90;;;;;;5071580;28;20028;-45
2022/08/04 01:30:14;;;;;;;39.65;29.05;;;18.70;92.10;;;;;;5087173;28;20476;-45
2022/08/04 01:32:48;;;;;;;46.38;31.70;;;18.80;92.10;;;;;;5084638;28;20140;-45
2022/08/04 01:35:35;;;;;;;49.67;29.13;;;18.70;92.10;;;;;;5091177;28;20404;-45
2022/08/04 01:38:12;;;;;;;41.55;29.38;;;18.80;92.20;;;;;;5091533;28;20019;-44
2022/08/04 01:40:40;;;;;;;41.50;25.98;;;18.80;92.20;;;;;;5089342;28;20024;-45
2022/08/04 01:43:10;;;;;;;34.90;27.63;;;18.80;92.10;;;;;;5106398;28;20066;-45
2022/08/04 01:45:39;;;;;;;37.30;27.00;;;18.90;92.10;;;;;;5104357;28;20035;-45
2022/08/04 01:48:06;;;;;;;44.63;29.10;;;18.80;92.00;;;;;;5111915;28;20464;-45
2022/08/04 01:50:39;;;;;;;38.33;26.20;;;18.80;92.00;;;;;;5100794;28;20345;-45
2022/08/04 01:53:07;;;;;;;33.42;26.67;;;18.80;92.10;;;;;;5097131;28;20032;-45
2022/08/04 01:55:34;;;;;;;46.15;26.20;;;18.80;92.00;;;;;;5088005;28;20369;-46
2022/08/04 01:57:59;;;;;;;32.67;24.33;;;18.80;91.90;;;;;;5104377;28;20043;-45
2022/08/04 02:00:27;;;;;;;33.95;24.63;;;18.80;92.00;;;;;;5110111;28;20039;-46
2022/08/04 02:02:55;;;;;;;33.72;24.23;;;18.80;92.10;;;;;;5093677;28;20115;-46
2022/08/04 02:05:24;;;;;;;35.38;23.27;;;18.90;92.00;;;;;;5109943;28;20028;-45
2022/08/04 02:08:03;;;;;;;38.53;23.23;;;18.90;92.00;;;;;;5091465;28;20044;-46
2022/08/04 02:11:00;;;;;;;34.67;24.70;;;18.80;91.90;;;;;;5092289;28;20096;-45
2022/08/04 02:13:56;;;;;;;36.72;23.88;;;18.80;91.90;;;;;;5072873;28;20603;-45
2022/08/04 02:16:48;;;;;;;42.47;23.35;;;18.80;91.90;;;;;;5092907;28;20496;-45
2022/08/04 02:19:29;;;;;;;33.03;24.17;;;18.80;91.90;;;;;;5073209;28;20040;-46
2022/08/04 02:22:07;;;;;;;32.72;22.83;;;18.80;91.90;;;;;;5108109;28;20027;-46
2022/08/04 02:24:40;;;;;;;31.08;21.92;;;18.70;91.80;;;;;;5111417;28;20020;-46
2022/08/04 02:27:07;;;;;;;29.50;22.40;;;18.70;91.80;;;;;;5091250;28;20114;-45
2022/08/04 02:29:47;;;;;;;33.58;23.15;;;18.60;91.80;;;;;;5111301;28;20045;-46
2022/08/04 02:32:28;;;;;;;29.73;23.80;;;18.60;91.90;;;;;;5109146;28;20051;-46
2022/08/04 02:35:03;;;;;;;30.02;22.17;;;18.60;91.90;;;;;;5081367;28;20028;-45
2022/08/04 02:37:34;;;;;;;35.85;24.00;;;18.60;91.80;;;;;;5090614;28;20042;-47
2022/08/04 02:40:05;;;;;;;30.65;21.65;;;18.70;91.90;;;;;;5091895;28;20078;-46
2022/08/04 02:42:32;;;;;;;30.17;22.15;;;18.60;92.00;;;;;;5072232;28;20050;-46
2022/08/04 02:45:00;;;;;;;34.30;23.23;;;18.60;91.90;;;;;;5102280;28;20546;-46
2022/08/04 02:47:28;;;;;;;32.13;25.48;;;18.60;91.90;;;;;;5090587;28;20391;-48
2022/08/04 02:49:56;;;;;;;34.30;25.05;;;18.60;91.80;;;;;;5100965;28;20330;-46
2022/08/04 02:52:23;;;;;;;35.42;24.45;;;18.60;91.90;;;;;;5110617;28;20028;-46
2022/08/04 02:54:53;;;;;;;35.85;25.98;;;18.60;91.90;;;;;;5109290;28;20111;-46
2022/08/04 02:57:23;;;;;;;30.40;24.13;;;18.60;92.00;;;;;;5110786;28;20024;-47
2022/08/04 03:00:13;;;;;;;38.47;26.70;;;18.70;92.10;;;;;;5083154;28;20035;-46
2022/08/04 03:02:59;;;;;;;46.15;29.48;;;18.70;92.10;;;;;;5110355;28;20028;-46
2022/08/04 03:05:40;;;;;;;36.38;26.38;;;18.70;92.20;;;;;;5096555;28;20032;-47
2022/08/04 03:08:44;;;;;;;38.35;26.60;;;18.80;92.30;;;;;;5090526;28;20052;-46
2022/08/04 03:11:39;;;;;;;36.75;27.42;;;18.80;92.30;;;;;;5049551;28;20160;-47
2022/08/04 03:14:20;;;;;;;35.60;27.88;;;18.80;92.40;;;;;;5080887;28;20043;-46
2022/08/04 03:17:22;;;;;;;35.85;25.35;;;18.90;92.40;;;;;;5095726;28;20019;-46
2022/08/04 03:20:28;;;;;;;35.33;25.92;;;18.80;92.30;;;;;;5085720;28;20114;-47
2022/08/04 03:22:56;;;;;;;39.05;27.33;;;18.80;92.40;;;;;;5106126;28;20496;-46
2022/08/04 03:25:46;;;;;;;37.47;25.67;;;18.90;92.50;;;;;;5108605;28;20419;-46
2022/08/04 03:28:17;;;;;;;39.05;26.58;;;18.90;92.40;;;;;;5109975;28;20015;-47
2022/08/04 03:30:52;;;;;;;34.08;25.42;;;18.90;92.40;;;;;;5094957;28;20415;-48
2022/08/04 03:33:26;;;;;;;41.05;28.67;;;18.90;92.30;;;;;;5091816;28;20015;-46
2022/08/04 03:36:04;;;;;;;34.30;27.80;;;18.90;92.30;;;;;;5089741;28;20023;-49
2022/08/04 03:39:00;;;;;;;39.03;26.05;;;18.90;92.30;;;;;;5090099;28;20020;-46
2022/08/04 03:41:34;;;;;;;35.35;25.85;;;18.90;92.20;;;;;;5089579;28;20023;-47
2022/08/04 03:44:53;;;;;;;33.72;23.95;;;18.90;92.20;;;;;;5072388;28;20073;-48
2022/08/04 03:47:38;;;;;;;30.15;23.60;;;19.00;92.10;;;;;;5025703;28;20354;-47
2022/08/04 03:50:20;;;;;;;34.35;24.33;;;18.90;92.00;;;;;;5013455;28;20033;-47
2022/08/04 03:53:10;;;;;;;31.48;21.50;;;18.90;92.00;;;;;;5007076;28;20022;-47
2022/08/04 03:55:53;;;;;;;27.50;21.98;;;18.90;91.90;;;;;;5008702;28;20053;-47
2022/08/04 03:58:43;;;;;;;28.02;22.92;;;18.90;91.90;;;;;;5020928;28;20037;-47
2022/08/04 04:01:33;;;;;;;24.08;19.73;;;18.90;91.90;;;;;;5018447;28;20473;-49
2022/08/04 04:04:21;;;;;;;;;;;18.80;91.80;;;;;;5007991;28;20117;-47
2022/08/04 04:07:26;;;;;;;24.67;18.63;;;18.80;91.70;;;;;;5000977;28;19952;-47
2022/08/04 04:10:18;;;;;;;27.33;19.65;;;18.80;91.70;;;;;;5025555;28;20037;-47
2022/08/04 04:13:01;;;;;;;23.50;19.75;;;18.70;91.60;;;;;;5010383;28;20104;-47
2022/08/04 04:15:37;;;;;;;28.85;21.23;;;18.80;91.60;;;;;;4997735;28;20068;-47
2022/08/04 04:18:28;;;;;;;24.58;19.02;;;18.70;91.50;;;;;;5007669;28;20048;-47
2022/08/04 04:21:27;;;;;;;25.33;19.40;;;18.70;91.70;;;;;;5051669;28;20044;-49
2022/08/04 04:24:14;;;;;;;27.50;19.58;;;18.80;91.80;;;;;;5089136;28;20039;-47
2022/08/04 04:27:00;;;;;;;26.65;19.52;;;18.80;91.70;;;;;;5088851;28;20028;-50
2022/08/04 04:29:38;;;;;;;29.98;20.90;;;18.90;91.80;;;;;;5092216;28;20035;-48
2022/08/04 04:32:34;;;;;;;29.40;19.63;;;18.90;91.60;;;;;;5092375;28;20024;-47
2022/08/04 04:35:21;;;;;;;26.80;19.25;;;18.90;91.60;;;;;;5089761;28;20035;-47
2022/08/04 04:38:12;;;;;;;25.65;20.58;;;18.90;91.70;;;;;;5088986;28;20073;-47
2022/08/04 04:40:43;;;;;;;26.25;19.05;;;19.00;91.90;;;;;;5090163;28;20111;-47
2022/08/04 04:43:30;;;;;;;30.42;19.20;;;19.10;91.90;;;;;;5088780;28;20420;-49
2022/08/04 04:46:08;;;;;;;27.23;19.13;;;19.10;91.90;;;;;;5097938;28;20476;-48
2022/08/04 04:48:57;;;;;;;30.70;19.98;;;19.10;91.80;;;;;;5088771;28;20032;-49
2022/08/04 04:51:32;;;;;;;27.80;20.55;;;19.20;91.80;;;;;;5088882;28;20032;-47
2022/08/04 04:54:37;;;;;;;24.85;18.85;;;19.20;91.70;;;;;;5088614;28;20120;-47
2022/08/04 04:57:28;;;;;;;25.67;17.17;;;19.30;91.70;;;;;;5070606;28;20016;-46
2022/08/04 05:00:01;;;;;;;24.35;17.75;;;19.30;91.70;;;;;;5091987;28;20167;-47
2022/08/04 05:02:39;;;;;;;21.67;16.92;;;19.40;91.70;;;;;;5089109;28;20054;-46
2022/08/04 05:05:36;;;;;;;31.27;17.10;;;19.40;91.60;;;;;;5079615;28;20039;-46
2022/08/04 05:08:53;;;;;;;22.63;17.25;;;19.50;91.60;;;;;;5086039;28;20028;-46
2022/08/04 05:11:52;;;;;;;24.58;16.65;;;19.50;91.50;;;;;;5038413;28;20036;-47
2022/08/04 05:14:31;;;;;;;25.73;15.97;;;19.60;91.40;;;;;;5074192;28;20330;-48
2022/08/04 05:17:03;;;;;;;18.40;15.25;;;19.60;91.40;;;;;;5107676;28;20258;-47
2022/08/04 05:19:37;;;;;;;18.95;14.63;;;19.70;91.30;;;;;;5112769;28;20040;-46
2022/08/04 05:22:09;;;;;;;23.17;14.95;;;19.80;91.20;;;;;;5111869;28;20039;-46
2022/08/04 05:24:39;;;;;;;23.58;15.90;;;19.90;91.20;;;;;;5110852;28;20035;-47
2022/08/04 05:27:13;;;;;;;21.60;14.75;;;19.90;91.00;;;;;;5111742;28;20028;-45
2022/08/04 05:29:52;;;;;;;23.50;14.27;;;19.90;90.80;;;;;;5110665;28;20412;-46
2022/08/04 05:32:25;;;;;;;21.45;13.48;;;20.00;90.60;;;;;;5109940;28;20529;-46
2022/08/04 05:35:06;;;;;;;25.52;13.50;;;20.10;90.40;;;;;;5108554;28;20035;-46
2022/08/04 05:37:37;;;;;;;21.60;12.50;;;20.20;90.20;;;;;;5091109;28;20028;-46
2022/08/04 05:40:07;;;;;;;19.15;11.63;;;20.30;89.90;;;;;;5097966;28;20023;-46
2022/08/04 05:42:38;;;;;;;21.73;11.80;;;20.40;89.80;;;;;;5086907;28;20052;-46
2022/08/04 05:45:06;;;;;;;14.70;11.23;;;20.40;89.60;;;;;;5089429;28;20357;-45
2022/08/04 05:47:32;;;;;;;20.63;11.98;;;20.50;89.40;;;;;;5086580;28;20441;-46
2022/08/04 05:50:03;;;;;;;18.15;10.38;;;20.60;89.20;;;;;;5089711;28;20028;-47
2022/08/04 05:52:30;;;;;;;19.08;10.73;;;20.70;89.10;;;;;;5090045;28;20020;-45
2022/08/04 05:54:59;;;;;;;18.65;10.55;;;20.70;89.00;;;;;;5088187;28;20107;-45
2022/08/04 05:57:25;;;;;;;14.68;10.68;;;20.90;88.80;;;;;;5089612;28;20016;-47
2022/08/04 05:59:53;;;;;;;15.38;10.50;;;20.90;88.80;;;;;;5086331;28;20081;-45
2022/08/04 06:02:19;;;;;;;15.13;10.15;;;20.90;88.80;;;;;;5090217;28;20035;-44
2022/08/04 06:04:49;;;;;;;17.80;10.88;;;21.00;88.60;;;;;;5089477;28;20020;-45
2022/08/04 06:07:15;;;;;;;14.73;10.55;;;21.10;88.70;;;;;;5087947;28;20453;-45
2022/08/04 06:09:41;;;;;;;19.10;11.18;;;21.20;88.40;;;;;;5087316;28;20070;-45
2022/08/04 06:12:16;;;;;;;22.17;11.18;;;21.20;87.80;;;;;;5085662;28;20366;-45
2022/08/04 06:14:48;;;;;;;15.23;9.93;;;21.30;87.70;;;;;;5088913;28;20074;-45
2022/08/04 06:17:21;;;;;;;21.20;10.40;;;21.40;87.30;;;;;;5070690;28;20295;-46
2022/08/04 06:19:50;;;;;;;21.60;11.52;;;21.40;87.40;;;;;;5084004;28;20032;-46
2022/08/04 06:22:17;;;;;;;19.53;10.77;;;21.60;87.40;;;;;;5089404;28;20027;-45
2022/08/04 06:24:46;;;;;;;18.20;10.63;;;21.60;86.80;;;;;;5076479;28;20075;-45
2022/08/04 06:27:13;;;;;;;18.48;10.73;;;21.70;86.60;;;;;;5071334;28;20082;-44
2022/08/04 06:29:40;;;;;;;23.00;10.82;;;21.80;86.10;;;;;;5082754;28;20079;-45
2022/08/04 06:32:23;;;;;;;17.40;10.48;;;21.90;86.10;;;;;;5072018;28;20043;-45
2022/08/04 06:34:56;;;;;;;17.58;12.18;;;22.00;86.20;;;;;;5083034;28;20350;-46
2022/08/04 06:37:24;;;;;;;19.95;11.25;;;22.00;85.80;;;;;;5090008;28;20047;-45
2022/08/04 06:39:50;;;;;;;21.98;12.30;;;22.20;85.80;;;;;;5089896;28;20028;-46
2022/08/04 06:42:17;;;;;;;18.13;11.60;;;22.30;86.30;;;;;;5095708;28;20358;-46
2022/08/04 06:44:48;;;;;;;18.05;12.80;;;22.30;86.00;;;;;;5104070;28;20067;-45
2022/08/04 06:47:18;;;;;;;22.70;12.00;;;22.40;85.70;;;;;;5099841;28;20417;-45
2022/08/04 06:49:46;;;;;;;20.20;10.82;;;22.50;84.80;;;;;;5102470;28;20065;-45
2022/08/04 06:52:16;;;;;;;29.58;11.48;;;22.50;84.50;;;;;;5109924;28;20023;-48
2022/08/04 06:54:43;;;;;;;21.17;10.45;;;22.60;84.00;;;;;;5109031;28;20031;-48
2022/08/04 06:57:13;;;;;;;20.55;9.50;;;22.70;83.80;;;;;;5100581;28;20045;-48
2022/08/04 06:59:44;;;;;;;;;;;22.80;83.80;;;;;;5096876;28;20039;-49
2022/08/04 07:02:23;;;;;;;19.15;9.63;;;22.90;83.10;;;;;;5107180;28;19907;-47
2022/08/04 07:04:50;;;;;;;14.20;8.93;;;23.00;82.40;;;;;;5082805;28;20119;-48
2022/08/04 07:07:16;;;;;;;15.38;7.47;;;23.10;81.90;;;;;;5071786;28;20038;-46
2022/08/04 07:09:44;;;;;;;18.05;7.60;;;23.20;81.90;;;;;;5080188;28;20032;-49
2022/08/04 07:12:12;;;;;;;18.58;8.60;;;23.30;81.60;;;;;;5108478;28;20023;-49
2022/08/04 07:14:39;;;;;;;16.88;6.93;;;23.30;80.90;;;;;;5103677;28;20036;-50
2022/08/04 07:17:09;;;;;;;14.90;6.07;;;23.40;80.00;;;;;;5106671;28;20030;-49
2022/08/04 07:19:36;;;;;;;14.45;7.15;;;23.50;79.70;;;;;;5105200;28;20444;-47
2022/08/04 07:22:06;;;;;;;13.60;5.97;;;23.60;79.10;;;;;;5071927;28;20036;-48
2022/08/04 07:24:36;;;;;;;14.65;6.07;;;23.80;79.40;;;;;;5075573;28;20035;-50
2022/08/04 07:27:02;;;;;;;20.88;7.03;;;23.90;78.10;;;;;;5108588;28;20028;-50
2022/08/04 07:29:29;;;;;;;12.90;5.68;;;24.10;76.70;;;;;;5089091;28;20109;-47
2022/08/04 07:31:57;;;;;;;12.75;5.20;;;24.30;76.80;;;;;;5104827;28;20394;-47
2022/08/04 07:34:25;;;;;;;21.02;5.20;;;24.50;75.70;;;;;;5108159;28;20039;-50
2022/08/04 07:36:58;;;;;;;10.70;5.28;;;24.80;75.10;;;;;;5090365;28;20099;-47
2022/08/04 07:39:27;;;;;;;12.50;4.65;;;25.10;74.20;;;;;;5089463;28;20024;-49
2022/08/04 07:41:56;;;;;;;14.55;5.28;;;25.40;72.90;;;;;;5090379;28;20043;-50
2022/08/04 07:44:24;;;;;;;13.30;4.25;;;25.60;72.80;;;;;;5089689;28;20032;-49
2022/08/04 07:46:51;;;;;;;13.43;4.97;;;25.90;71.80;;;;;;5087289;28;20419;-49
2022/08/04 07:49:19;;;;;;;20.27;4.80;;;26.20;70.80;;;;;;5105007;28;20059;-48
2022/08/04 07:51:46;;;;;;;16.17;4.90;;;26.50;69.60;;;;;;5105755;28;20051;-49
2022/08/04 07:54:14;;;;;;;11.88;4.78;;;26.80;69.40;;;;;;5103879;28;20329;-50
2022/08/04 07:56:42;;;;;;;10.30;3.72;;;26.90;67.70;;;;;;5103953;28;20023;-51
2022/08/04 07:59:09;;;;;;;10.88;4.05;;;26.90;68.30;;;;;;5095887;28;20138;-48
2022/08/04 08:01:37;;;;;;;21.27;3.58;;;27.10;68.00;;;;;;5088121;28;20060;-51
2022/08/04 08:04:08;;;;;;;13.07;3.90;;;27.20;65.60;;;;;;5094112;28;20055;-49
2022/08/04 08:06:37;;;;;;;12.30;3.50;;;27.50;66.10;;;;;;5086246;28;20028;-52
2022/08/04 08:09:10;;;;;;;10.60;4.10;;;27.70;65.90;;;;;;5089802;28;20050;-50
2022/08/04 08:11:37;;;;;;;13.38;4.00;;;27.70;65.10;;;;;;5089973;28;20027;-48
2022/08/04 08:14:07;;;;;;;12.40;3.42;;;27.70;64.00;;;;;;5089049;28;20025;-48
2022/08/04 08:16:34;;;;;;;;;;;27.90;64.30;;;;;;5083389;28;20422;-48
2022/08/04 08:19:02;;;;;;;10.00;2.95;;;28.10;62.40;;;;;;5090874;28;19907;-51
2022/08/04 08:21:30;;;;;;;9.93;2.95;;;28.30;62.60;;;;;;5108093;28;20028;-49
2022/08/04 08:23:59;;;;;;;11.95;3.28;;;28.40;62.30;;;;;;5085990;28;20058;-51
2022/08/04 08:26:25;;;;;;;;;;;28.60;62.00;;;;;;5107700;28;20042;-53
2022/08/04 08:28:52;;;;;;;11.55;3.90;;;29.00;61.70;;;;;;5107975;28;20244;-49
2022/08/04 08:31:21;;;;;;;9.23;3.67;;;29.00;60.50;;;;;;5083084;28;20411;-49
2022/08/04 08:33:49;;;;;;;;;;;29.00;61.10;;;;;;5094180;28;20299;-52
2022/08/04 08:36:40;;;;;;;11.90;3.58;;;28.80;61.00;;;;;;5096544;28;19922;-49
2022/08/04 08:39:24;;;;;;;10.38;3.83;;;28.70;61.30;;;;;;5104699;28;20076;-48
2022/08/04 08:42:01;;;;;;;12.27;3.33;;;28.80;61.30;;;;;;5101097;28;20048;-52
2022/08/04 08:44:54;;;;;;;8.68;3.03;;;28.80;60.90;;;;;;5093196;28;20036;-48
2022/08/04 08:47:57;;;;;;;8.13;3.20;;;28.80;60.10;;;;;;5111416;28;20049;-48
2022/08/04 08:50:44;;;;;;;10.80;3.75;;;28.70;60.20;;;;;;5110465;28;20111;-49
2022/08/04 08:53:36;;;;;;;8.32;2.85;;;28.80;60.00;;;;;;5101520;28;20020;-47
2022/08/04 08:56:30;;;;;;;6.97;2.92;;;28.90;60.10;;;;;;5109672;28;20092;-47
2022/08/04 08:59:25;;;;;;;9.02;3.47;;;28.90;61.00;;;;;;5112858;28;20020;-51
2022/08/04 09:02:20;;;;;;;7.50;3.45;;;29.10;59.90;;;;;;5095816;28;20023;-47
2022/08/04 09:05:06;;;;;;;8.55;3.67;;;28.80;60.30;;;;;;5109730;28;20366;-48
2022/08/04 09:08:11;;;;;;;12.77;3.60;;;28.90;60.80;;;;;;5107796;28;20460;-48
2022/08/04 09:11:14;;;;;;;10.20;3.30;;;29.00;59.70;;;;;;5061600;28;20336;-48
2022/08/04 09:13:51;;;;;;;11.32;3.15;;;29.00;60.10;;;;;;5111015;28;20504;-48
2022/08/04 09:16:47;;;;;;;6.82;2.65;;;29.10;60.70;;;;;;5111382;28;20035;-50
2022/08/04 09:19:36;;;;;;;7.60;3.53;;;29.30;61.90;;;;;;5112135;28;20171;-48
2022/08/04 09:22:21;;;;;;;9.70;3.58;;;29.60;62.60;;;;;;5108346;28;20073;-48
2022/08/04 09:25:08;;;;;;;8.30;3.47;;;29.50;60.10;;;;;;5093293;28;20122;-48
2022/08/04 09:27:59;;;;;;;12.77;5.22;;;30.00;62.70;;;;;;5093281;28;20036;-49
2022/08/04 09:31:00;;;;;;;13.07;3.33;;;30.70;60.90;;;;;;5093087;28;20032;-49
2022/08/04 09:34:03;;;;;;;11.02;3.20;;;30.90;55.50;;;;;;5091795;28;20032;-50
2022/08/04 09:36:45;;;;;;;11.80;4.22;;;31.20;60.90;;;;;;5102820;28;20039;-51
2022/08/04 09:39:27;;;;;;;6.85;2.83;;;31.10;54.70;;;;;;5077108;28;20039;-52
2022/08/04 09:42:15;;;;;;;7.97;3.00;;;31.10;57.70;;;;;;5110176;28;20052;-51
2022/08/04 09:44:41;;;;;;;6.70;2.95;;;31.00;55.10;;;;;;5112126;28;20028;-49
2022/08/04 09:47:34;;;;;;;8.10;2.85;;;31.30;59.20;;;;;;5094173;28;20044;-51
2022/08/04 09:50:28;;;;;;;8.23;4.20;;;31.20;55.60;;;;;;5091308;28;20379;-49
2022/08/04 09:53:02;;;;;;;9.93;3.05;;;30.90;55.90;;;;;;5090802;28;20103;-50
2022/08/04 09:55:42;;;;;;;6.72;3.00;;;30.80;56.40;;;;;;5092613;28;20026;-49
2022/08/04 09:58:46;;;;;;;7.97;3.60;;;30.80;57.20;;;;;;5111862;28;20107;-48
2022/08/04 10:01:20;;;;;;;8.40;3.00;;;31.10;57.00;;;;;;5098548;28;20063;-50
2022/08/04 10:04:13;;;;;;;7.05;2.47;;;31.20;55.60;;;;;;5111544;28;20027;-50
2022/08/04 10:06:48;;;;;;;9.65;3.33;;;31.20;57.40;;;;;;5072278;28;20350;-52
2022/08/04 10:09:53;;;;;;;9.75;2.97;;;30.90;56.50;;;;;;5095464;28;20330;-51
2022/08/04 10:12:42;;;;;;;10.68;2.75;;;30.90;56.00;;;;;;5088166;28;20347;-49
2022/08/04 10:15:12;;;;;;;;;;;30.90;54.60;;;;;;5088833;28;20027;-55
2022/08/04 10:18:14;;;;;;;7.10;2.40;;;30.80;55.40;;;;;;5100589;28;19908;-49
2022/08/04 10:21:16;;;;;;;6.70;2.75;;;31.40;57.80;;;;;;5090125;28;20048;-53
2022/08/04 10:24:28;;;;;;;9.10;3.38;;;31.50;54.40;;;;;;5066558;28;20036;-54
2022/08/04 10:27:16;;;;;;;6.70;3.10;;;32.00;56.00;;;;;;5072724;28;20035;-52
2022/08/04 10:30:11;;;;;;;6.35;3.03;;;31.80;54.90;;;;;;5080829;28;20115;-53
2022/08/04 10:32:51;;;;;;;5.25;2.80;;;32.00;55.30;;;;;;5090277;28;20055;-54
2022/08/04 10:35:25;;;;;;;11.82;3.08;;;32.30;54.10;;;;;;5080388;28;20023;-51
2022/08/04 10:38:29;;;;;;;8.27;3.33;;;32.30;56.00;;;;;;5108990;28;20030;-53
2022/08/04 10:41:26;;;;;;;6.82;3.13;;;32.60;53.60;;;;;;5091382;28;20027;-56
2022/08/04 10:44:07;;;;;;;9.98;4.28;;;32.50;53.70;;;;;;5111322;28;20069;-55
2022/08/04 10:46:45;;;;;;;13.15;6.03;;;32.60;56.60;;;;;;5089156;28;20342;-56
2022/08/04 10:49:45;;;;;;;17.73;6.15;;;32.40;57.60;;;;;;5090336;28;20033;-56
2022/08/04 10:52:33;;;;;;;12.02;5.80;;;32.40;56.20;;;;;;5073159;28;20361;-55
2022/08/04 10:55:26;;;;;;;11.75;4.53;;;32.20;56.40;;;;;;5091770;28;20088;-56
2022/08/04 10:58:03;;;;;;;10.27;4.47;;;32.30;55.90;;;;;;5091157;28;20621;-54
2022/08/04 11:00:32;;;;;;;9.02;4.32;;;32.30;54.10;;;;;;5091444;28;20040;-54
2022/08/04 11:03:25;;;;;;;11.07;4.30;;;32.30;54.90;;;;;;5099014;28;20038;-56
2022/08/04 11:06:01;;;;;;;13.23;4.50;;;32.30;55.30;;;;;;5093320;28;20044;-51
2022/08/04 11:08:44;;;;;;;9.52;5.03;;;32.30;57.10;;;;;;5090003;28;20085;-57
2022/08/04 11:11:51;;;;;;;12.15;4.93;;;32.30;58.60;;;;;;5073427;28;20028;-53
2022/08/04 11:14:25;;;;;;;12.98;4.47;;;31.80;55.90;;;;;;5069037;28;20039;-54
2022/08/04 11:17:25;;;;;;;9.43;4.00;;;31.60;56.80;;;;;;5086924;28;20468;-54
2022/08/04 11:20:15;;;;;;;10.80;4.68;;;31.90;58.70;;;;;;5101634;28;20043;-50
2022/08/04 11:22:56;;;;;;;13.25;5.13;;;31.40;56.80;;;;;;5092342;28;20027;-49
2022/08/04 11:25:34;;;;;;;9.02;3.85;;;31.40;54.90;;;;;;5099814;28;20012;-53
2022/08/04 11:28:27;;;;;;;10.65;4.53;;;31.30;56.60;;;;;;5096690;28;20314;-53
2022/08/04 11:31:01;;;;;;;9.73;4.22;;;31.20;57.50;;;;;;5090359;28;20087;-50
2022/08/04 11:34:04;;;;;;;14.98;4.50;;;31.20;54.30;;;;;;5110195;28;20481;-53
2022/08/04 11:37:05;;;;;;;7.82;3.67;;;31.00;55.20;;;;;;5098170;28;20133;-49
2022/08/04 11:39:52;;;;;;;8.13;4.20;;;31.10;54.60;;;;;;5090958;28;20028;-52
2022/08/04 11:42:36;;;;;;;11.43;4.82;;;30.90;54.10;;;;;;5089327;28;20489;-50
2022/08/04 11:45:14;;;;;;;8.05;4.47;;;31.10;53.50;;;;;;5078026;28;20032;-51
2022/08/04 11:48:09;;;;;;;9.38;4.28;;;31.00;53.60;;;;;;5089210;28;20056;-54
2022/08/04 11:50:55;;;;;;;7.80;2.95;;;30.90;55.30;;;;;;5107431;28;20039;-52
2022/08/04 11:53:27;;;;;;;10.82;3.38;;;31.00;52.60;;;;;;5109377;28;20111;-48
2022/08/04 11:56:01;;;;;;;11.75;3.40;;;31.10;54.70;;;;;;5109425;28;20061;-49
2022/08/04 11:58:29;;;;;;;11.57;2.90;;;31.30;52.20;;;;;;5108569;28;20037;-50
2022/08/04 12:01:32;;;;;;;8.82;3.00;;;31.50;51.90;;;;;;5096345;28;20028;-53
2022/08/04 12:04:13;;;;;;;13.18;5.82;;;31.60;52.20;;;;;;5104845;28;20031;-53
2022/08/04 12:06:54;;;;;;;12.65;6.43;;;31.30;56.60;;;;;;5071484;28;20043;-53
2022/08/04 12:09:45;;;;;;;12.60;6.20;;;31.10;56.60;;;;;;5090240;28;20028;-48
2022/08/04 12:12:49;;;;;;;12.27;6.68;;;30.60;58.20;;;;;;5089473;28;20020;-49
2022/08/04 12:15:27;;;;;;;11.52;5.10;;;30.30;57.80;;;;;;5101028;28;20027;-55
2022/08/04 12:18:14;;;;;;;13.05;5.18;;;29.90;58.80;;;;;;5088661;28;20023;-51
2022/08/04 12:20:49;;;;;;;13.25;5.00;;;29.90;57.30;;;;;;5105332;28;20045;-48
2022/08/04 12:23:34;;;;;;;9.25;4.57;;;29.50;58.80;;;;;;5108621;28;20460;-47
2022/08/04 12:26:06;;;;;;;12.10;4.75;;;29.40;59.00;;;;;;5106780;28;20031;-52
2022/08/04 12:28:34;;;;;;;14.45;4.57;;;29.50;57.90;;;;;;5108791;28;20019;-49
2022/08/04 12:31:11;;;;;;;5.97;3.20;;;29.40;57.30;;;;;;5073502;28;20040;-50
2022/08/04 12:34:03;;;;;;;7.00;4.20;;;29.30;59.20;;;;;;5088389;28;20059;-48
2022/08/04 12:36:54;;;;;;;7.88;3.40;;;29.00;58.50;;;;;;5088419;28;20043;-50
2022/08/04 12:39:23;;;;;;;8.45;3.05;;;28.70;59.40;;;;;;5075549;28;20024;-46
2022/08/04 12:42:07;;;;;;;6.60;2.80;;;28.60;59.80;;;;;;5088192;28;20496;-47
2022/08/04 12:44:36;;;;;;;7.65;4.45;;;28.20;59.10;;;;;;5099013;28;20032;-48
2022/08/04 12:47:04;;;;;;;;;;;27.90;59.10;;;;;;5092042;28;20024;-47
2022/08/04 12:49:34;;;;;;;10.57;3.13;;;27.80;59.00;;;;;;5079270;28;19916;-48
2022/08/04 12:52:06;;;;;;;10.23;3.13;;;27.90;58.00;;;;;;5108446;28;20031;-53
2022/08/04 12:54:35;;;;;;;8.02;3.20;;;27.90;57.40;;;;;;5088544;28;20024;-47
2022/08/04 12:57:05;;;;;;;8.02;2.60;;;27.70;59.00;;;;;;5106312;28;20030;-46
2022/08/04 12:59:44;;;;;;;8.02;2.85;;;27.60;59.20;;;;;;5099593;28;20024;-50
2022/08/04 13:02:41;;;;;;;11.65;3.97;;;27.30;59.20;;;;;;5087541;28;20096;-50
2022/08/04 13:05:10;;;;;;;10.20;3.47;;;26.90;61.70;;;;;;5075515;28;20361;-48
2022/08/04 13:07:47;;;;;;;13.30;4.10;;;26.40;64.70;;;;;;5087770;28;20445;-48
2022/08/04 13:10:20;;;;;;;6.60;2.42;;;26.30;65.70;;;;;;5088935;28;20042;-49
2022/08/04 13:13:01;;;;;;;11.20;3.50;;;26.20;65.60;;;;;;5073588;28;20030;-53
2022/08/04 13:15:29;;;;;;;8.02;2.35;;;26.20;66.20;;;;;;5088673;28;20043;-47
2022/08/04 13:18:13;;;;;;;6.70;2.78;;;26.10;65.20;;;;;;5106144;28;20467;-47
2022/08/04 13:20:42;;;;;;;8.10;2.35;;;25.90;66.30;;;;;;5100349;28;20024;-47
2022/08/04 13:23:13;;;;;;;6.00;1.90;;;25.80;66.80;;;;;;5080886;28;20023;-48
2022/08/04 13:25:49;;;;;;;5.90;2.20;;;25.60;65.70;;;;;;5098740;28;20055;-47
2022/08/04 13:28:25;;;;;;;7.68;1.85;;;25.40;67.10;;;;;;5108586;28;20023;-47
2022/08/04 13:31:00;;;;;;;4.80;1.75;;;25.20;68.40;;;;;;5112088;28;20027;-47
2022/08/04 13:33:32;;;;;;;7.05;2.53;;;25.10;68.90;;;;;;5110669;28;20024;-45
2022/08/04 13:36:00;;;;;;;7.13;1.92;;;25.00;67.40;;;;;;5112331;28;20016;-50